createdAt,value
2018-08-18T00:00:17.364Z,7.30
2018-08-18T00:02:45.941Z,6.87
2018-08-18T00:05:15.559Z,7.10
2018-08-18T00:07:44.389Z,6.83
2018-08-18T00:10:16.784Z,7.57
2018-08-18T00:12:45.310Z,7.70
2018-08-18T00:15:13.872Z,7.63
2018-08-18T00:17:42.792Z,7.80
2018-08-18T00:20:16.473Z,7.47
2018-08-18T00:22:45.489Z,6.73
2018-08-18T00:25:14.051Z,7.97
2018-08-18T00:27:42.459Z,7.63
2018-08-18T00:30:16.661Z,8.70
2018-08-18T00:32:45.336Z,7.70
2018-08-18T00:35:13.779Z,8.63
2018-08-18T00:37:42.209Z,8.23
2018-08-18T00:40:11.621Z,8.03
2018-08-18T00:42:40.378Z,8.50
2018-08-18T00:45:10.636Z,8.97
2018-08-18T00:47:39.890Z,8.10
2018-08-18T00:50:09.280Z,8.27
2018-08-18T00:52:37.912Z,8.47
2018-08-18T00:55:06.533Z,8.50
2018-08-18T00:57:35.046Z,8.47
2018-08-18T01:00:03.537Z,8.10
2018-08-18T01:02:32.323Z,7.80
2018-08-18T01:05:01.791Z,8.63
2018-08-18T01:07:31.423Z,8.57
2018-08-18T01:10:00.294Z,8.73
2018-08-18T01:12:29.167Z,8.93
2018-08-18T01:14:58.213Z,8.10
2018-08-18T01:17:26.801Z,8.57
2018-08-18T01:19:57.005Z,9.10
2018-08-18T01:22:25.535Z,8.67
2018-08-18T01:24:54.564Z,9.13
2018-08-18T01:27:23.258Z,8.73
2018-08-18T01:29:56.037Z,8.53
2018-08-18T01:32:25.036Z,9.00
2018-08-18T01:34:54.176Z,8.33
2018-08-18T01:37:22.661Z,8.70
2018-08-18T01:39:53.478Z,9.40
2018-08-18T01:42:22.098Z,8.77
2018-08-18T01:44:52.604Z,9.07
2018-08-18T01:47:21.063Z,8.87
2018-08-18T01:49:49.519Z,9.73
2018-08-18T01:52:25.255Z,8.60
2018-08-18T01:54:53.733Z,9.60
2018-08-18T01:57:23.025Z,8.47
2018-08-18T01:59:51.580Z,9.37
2018-08-18T02:02:25.876Z,8.97
2018-08-18T02:04:54.980Z,9.83
2018-08-18T02:07:28.469Z,9.37
2018-08-18T02:09:57.222Z,10.23
2018-08-18T02:12:26.202Z,10.43
2018-08-18T02:14:55.165Z,11.20
2018-08-18T02:17:29.962Z,13.50
2018-08-18T02:19:58.798Z,13.60
2018-08-18T02:22:28.175Z,14.23
2018-08-18T02:24:56.685Z,14.50
2018-08-18T02:27:25.458Z,13.57
2018-08-18T02:30:05.831Z,12.43
2018-08-18T02:32:36.705Z,12.20
2018-08-18T02:35:06.225Z,11.27
2018-08-18T02:37:34.677Z,12.37
2018-08-18T02:40:03.336Z,11.43
2018-08-18T02:42:31.726Z,11.13
2018-08-18T02:45:00.196Z,11.97
2018-08-18T02:47:28.655Z,11.67
2018-08-18T02:49:59.816Z,12.03
2018-08-18T02:52:31.709Z,11.73
2018-08-18T02:55:01.397Z,11.33
2018-08-18T02:57:32.001Z,10.90
2018-08-18T03:00:01.845Z,12.03
2018-08-18T03:02:30.300Z,16.23
2018-08-18T03:04:58.857Z,16.07
2018-08-18T03:07:31.410Z,16.00
2018-08-18T03:09:59.956Z,15.47
2018-08-18T03:12:38.405Z,15.27
2018-08-18T03:15:07.372Z,17.17
2018-08-18T03:17:35.824Z,17.60
2018-08-18T03:20:04.786Z,17.77
2018-08-18T03:22:38.535Z,17.47
2018-08-18T03:25:06.963Z,16.67
2018-08-18T03:27:35.420Z,17.33
2018-08-18T03:30:04.012Z,14.47
2018-08-18T03:32:32.458Z,15.07
2018-08-18T03:35:01.174Z,14.00
2018-08-18T03:37:31.678Z,13.40
2018-08-18T03:40:00.229Z,14.03
2018-08-18T03:42:47.447Z,14.60
2018-08-18T03:45:15.855Z,14.23
2018-08-18T03:47:44.621Z,15.83
2018-08-18T03:50:13.032Z,15.73
2018-08-18T03:52:41.425Z,15.10
2018-08-18T03:55:09.953Z,16.60
2018-08-18T03:57:47.268Z,15.97
2018-08-18T04:00:16.833Z,16.27
2018-08-18T04:02:45.503Z,14.47
2018-08-18T04:05:13.933Z,15.03
2018-08-18T04:07:48.517Z,15.20
2018-08-18T04:10:18.824Z,16.57
2018-08-18T04:12:47.574Z,15.87
2018-08-18T04:15:16.269Z,15.47
2018-08-18T04:17:44.692Z,15.33
2018-08-18T04:20:13.717Z,15.37
2018-08-18T04:22:42.117Z,15.97
2018-08-18T04:25:10.681Z,13.83
2018-08-18T04:27:42.139Z,14.50
2018-08-18T04:30:15.728Z,13.87
2018-08-18T04:32:53.980Z,15.23
2018-08-18T04:35:24.749Z,15.80
2018-08-18T04:37:54.024Z,13.83
2018-08-18T04:40:23.048Z,14.07
2018-08-18T04:42:51.516Z,14.00
2018-08-18T04:45:21.203Z,13.37
2018-08-18T04:47:52.544Z,13.90
2018-08-18T04:50:21.708Z,13.63
2018-08-18T04:52:51.961Z,13.07
2018-08-18T04:55:20.886Z,12.97
2018-08-18T04:57:49.344Z,13.33
2018-08-18T05:00:18.260Z,12.60
2018-08-18T05:02:52.168Z,10.83
2018-08-18T05:05:26.280Z,9.23
2018-08-18T05:07:54.885Z,9.67
2018-08-18T05:10:23.357Z,8.50
2018-08-18T05:12:51.835Z,8.27
2018-08-18T05:15:20.268Z,8.50
2018-08-18T05:17:50.418Z,7.60
2018-08-18T05:20:20.688Z,8.20
2018-08-18T05:22:49.126Z,8.17
2018-08-18T05:25:19.225Z,7.33
2018-08-18T05:27:47.642Z,8.33
2018-08-18T05:30:16.109Z,8.07
2018-08-18T05:32:44.618Z,7.30
2018-08-18T05:35:13.597Z,6.30
2018-08-18T05:37:42.051Z,8.07
2018-08-18T05:40:10.496Z,7.03
2018-08-18T05:42:38.942Z,6.87
2018-08-18T05:45:22.405Z,6.43
2018-08-18T05:47:52.226Z,6.97
2018-08-18T05:50:22.584Z,6.97
2018-08-18T05:52:52.954Z,7.23
2018-08-18T05:55:21.425Z,8.00
2018-08-18T05:57:49.832Z,7.87
2018-08-18T06:00:19.490Z,8.07
2018-08-18T06:02:53.230Z,8.00
2018-08-18T06:05:21.768Z,8.43
2018-08-18T06:07:50.228Z,8.40
2018-08-18T06:10:18.688Z,8.00
2018-08-18T06:12:47.117Z,8.53
2018-08-18T06:15:15.588Z,9.27
2018-08-18T06:17:44.030Z,8.20
2018-08-18T06:20:12.479Z,8.37
2018-08-18T06:22:41.005Z,7.97
2018-08-18T06:25:10.287Z,7.73
2018-08-18T06:27:43.650Z,7.67
2018-08-18T06:30:12.157Z,8.40
2018-08-18T06:32:40.693Z,8.33
2018-08-18T06:35:09.304Z,7.40
2018-08-18T06:37:37.733Z,7.70
2018-08-18T06:40:06.742Z,8.13
2018-08-18T06:42:39.510Z,8.07
2018-08-18T06:45:09.439Z,7.90
2018-08-18T06:47:37.877Z,7.33
2018-08-18T06:50:08.402Z,7.50
2018-08-18T06:52:36.837Z,7.30
2018-08-18T06:55:05.870Z,7.70
2018-08-18T06:57:46.236Z,7.87
2018-08-18T07:00:16.528Z,7.33
2018-08-18T07:02:45.344Z,6.80
2018-08-18T07:05:15.411Z,8.13
2018-08-18T07:07:44.662Z,6.83
2018-08-18T07:10:25.304Z,7.03
2018-08-18T07:12:58.383Z,6.90
2018-08-18T07:15:29.152Z,8.00
2018-08-18T07:17:57.637Z,6.42
2018-08-18T07:20:26.113Z,8.23
2018-08-18T07:22:55.186Z,6.47
2018-08-18T07:25:23.936Z,7.20
2018-08-18T07:27:58.774Z,6.03
2018-08-18T07:30:28.268Z,6.97
2018-08-18T07:32:56.879Z,6.37
2018-08-18T07:35:25.412Z,8.33
2018-08-18T07:37:53.862Z,6.42
2018-08-18T07:40:31.113Z,6.00
2018-08-18T07:43:02.645Z,6.30
2018-08-18T07:45:31.373Z,5.80
2018-08-18T07:47:59.928Z,4.90
2018-08-18T07:50:28.308Z,5.45
2018-08-18T07:52:57.461Z,5.12
2018-08-18T07:55:25.988Z,5.22
2018-08-18T07:57:59.890Z,5.20
2018-08-18T08:00:33.696Z,4.95
2018-08-18T08:03:02.484Z,5.70
2018-08-18T08:05:31.389Z,5.55
2018-08-18T08:07:59.936Z,5.17
2018-08-18T08:10:28.607Z,5.50
2018-08-18T08:12:57.508Z,5.58
2018-08-18T08:15:25.972Z,5.17
2018-08-18T08:17:54.514Z,4.72
2018-08-18T08:20:23.061Z,5.00
2018-08-18T08:22:52.649Z,5.08
2018-08-18T08:25:21.247Z,4.05
2018-08-18T08:27:51.156Z,5.70
2018-08-18T08:30:21.445Z,5.20
2018-08-18T08:32:49.950Z,5.08
2018-08-18T08:35:18.802Z,4.08
2018-08-18T08:37:48.253Z,4.00
2018-08-18T08:40:18.053Z,2.83
2018-08-18T08:42:46.877Z,3.47
2018-08-18T08:45:16.980Z,5.03
2018-08-18T08:47:47.426Z,3.67
2018-08-18T08:50:18.032Z,4.60
2018-08-18T08:52:51.756Z,4.72
2018-08-18T08:55:21.430Z,5.05
2018-08-18T08:57:49.990Z,5.62
2018-08-18T09:00:18.825Z,4.80
2018-08-18T09:02:47.305Z,4.33
2018-08-18T09:05:15.895Z,4.37
2018-08-18T09:07:44.361Z,5.03
2018-08-18T09:10:14.115Z,4.70
2018-08-18T09:12:42.751Z,5.10
2018-08-18T09:15:12.733Z,5.58
2018-08-18T09:17:41.327Z,5.15
2018-08-18T09:20:16.353Z,4.80
2018-08-18T09:22:56.396Z,5.08
2018-08-18T09:25:26.671Z,6.12
2018-08-18T09:27:57.417Z,5.83
2018-08-18T09:30:27.281Z,4.08
2018-08-18T09:32:58.347Z,4.45
2018-08-18T09:35:26.813Z,4.08
2018-08-18T09:38:00.437Z,4.55
2018-08-18T09:40:30.729Z,4.30
2018-08-18T09:42:59.543Z,4.78
2018-08-18T09:45:28.059Z,3.98
2018-08-18T09:47:56.637Z,4.17
2018-08-18T09:50:25.125Z,4.15
2018-08-18T09:52:53.644Z,4.47
2018-08-18T09:55:22.557Z,4.40
2018-08-18T09:57:51.055Z,4.78
2018-08-18T10:00:23.754Z,3.77
2018-08-18T10:02:52.257Z,3.35
2018-08-18T10:05:20.682Z,3.37
2018-08-18T10:07:49.478Z,3.60
2018-08-18T10:10:17.989Z,4.28
2018-08-18T10:12:46.541Z,4.30
2018-08-18T10:15:15.112Z,3.15
2018-08-18T10:17:43.584Z,4.50
2018-08-18T10:20:12.058Z,3.45
2018-08-18T10:22:40.805Z,4.87
2018-08-18T10:25:09.271Z,4.00
2018-08-18T10:27:37.780Z,4.90
2018-08-18T10:30:06.537Z,4.97
2018-08-18T10:32:39.782Z,4.30
2018-08-18T10:35:11.045Z,4.62
2018-08-18T10:37:39.634Z,4.37
2018-08-18T10:40:10.130Z,4.47
2018-08-18T10:42:38.564Z,4.35
2018-08-18T10:45:07.658Z,5.12
2018-08-18T10:47:36.079Z,4.67
2018-08-18T10:50:18.664Z,4.60
2018-08-18T10:52:55.866Z,4.25
2018-08-18T10:55:24.343Z,5.00
2018-08-18T10:58:05.203Z,5.25
2018-08-18T11:00:34.306Z,5.05
2018-08-18T11:03:04.216Z,5.42
2018-08-18T11:05:32.785Z,5.67
2018-08-18T11:08:07.011Z,5.80
2018-08-18T11:10:36.954Z,6.47
2018-08-18T11:13:05.493Z,5.53
2018-08-18T11:15:34.006Z,5.13
2018-08-18T11:18:02.481Z,5.67
2018-08-18T11:20:32.389Z,6.07
2018-08-18T11:23:18.985Z,6.30
2018-08-18T11:25:51.221Z,6.77
2018-08-18T11:28:20.294Z,6.40
2018-08-18T11:30:50.942Z,5.47
2018-08-18T11:33:34.628Z,5.67
2018-08-18T11:36:03.880Z,4.83
2018-08-18T11:38:32.962Z,6.03
2018-08-18T11:41:01.720Z,6.07
2018-08-18T11:43:32.584Z,6.40
2018-08-18T11:46:01.484Z,6.90
2018-08-18T11:48:30.589Z,6.07
2018-08-18T11:50:59.580Z,5.90
2018-08-18T11:53:28.043Z,7.03
2018-08-18T11:55:56.589Z,4.70
2018-08-18T11:58:25.367Z,4.40
2018-08-18T12:00:55.266Z,11.90
2018-08-18T12:03:26.121Z,4.90
2018-08-18T12:05:56.624Z,5.70
2018-08-18T12:08:26.208Z,5.00
2018-08-18T12:10:57.411Z,4.53
2018-08-18T12:13:31.361Z,15.53
2018-08-18T12:16:08.633Z,5.33
2018-08-18T12:18:38.969Z,4.53
2018-08-18T12:21:08.212Z,5.03
2018-08-18T12:23:38.093Z,6.70
2018-08-18T12:26:09.657Z,5.20
2018-08-18T12:28:44.994Z,4.33
2018-08-18T12:31:15.673Z,5.17
2018-08-18T12:33:44.207Z,5.43
2018-08-18T12:36:12.841Z,4.60
2018-08-18T12:38:44.548Z,3.30
2018-08-18T12:41:13.080Z,4.00
2018-08-18T12:43:44.059Z,3.10
2018-08-18T12:46:14.182Z,2.67
2018-08-18T12:48:43.982Z,3.10
2018-08-18T12:51:13.596Z,3.10
2018-08-18T12:53:55.842Z,2.70
2018-08-18T12:56:28.384Z,3.40
2018-08-18T12:58:57.043Z,2.73
2018-08-18T13:01:42.545Z,3.57
2018-08-18T13:04:13.792Z,3.80
2018-08-18T13:06:44.831Z,3.80
2018-08-18T13:09:14.808Z,2.83
2018-08-18T13:11:44.751Z,4.20
2018-08-18T13:14:19.232Z,4.07
2018-08-18T13:16:47.669Z,3.37
2018-08-18T13:19:18.349Z,3.37
2018-08-18T13:21:46.970Z,3.60
2018-08-18T13:24:16.300Z,3.27
2018-08-18T13:26:44.712Z,2.83
2018-08-18T13:29:13.188Z,3.50
2018-08-18T13:31:42.954Z,3.33
2018-08-18T13:34:13.747Z,3.67
2018-08-18T13:36:43.485Z,6.07
2018-08-18T13:39:13.993Z,4.33
2018-08-18T13:41:43.296Z,3.17
2018-08-18T13:44:11.909Z,3.40
2018-08-18T13:46:48.492Z,3.07
2018-08-18T13:49:22.349Z,2.90
2018-08-18T13:51:51.169Z,2.40
2018-08-18T13:54:19.847Z,2.83
2018-08-18T13:56:48.308Z,2.80
2018-08-18T13:59:35.079Z,4.60
2018-08-18T14:02:03.541Z,3.83
2018-08-18T14:04:31.999Z,3.27
2018-08-18T14:07:00.485Z,4.40
2018-08-18T14:09:28.896Z,4.07
2018-08-18T14:12:03.272Z,4.37
2018-08-18T14:14:31.759Z,3.60
2018-08-18T14:17:00.177Z,4.27
2018-08-18T14:19:28.717Z,3.77
2018-08-18T14:22:02.785Z,3.73
2018-08-18T14:24:35.005Z,3.63
2018-08-18T14:27:04.574Z,3.13
2018-08-18T14:29:33.885Z,2.57
2018-08-18T14:32:03.947Z,8.83
2018-08-18T14:34:32.372Z,3.40
2018-08-18T14:37:06.236Z,2.93
2018-08-18T14:39:38.268Z,2.83
2018-08-18T14:42:07.751Z,3.03
2018-08-18T14:44:36.957Z,3.33
2018-08-18T14:47:06.011Z,2.90
2018-08-18T14:49:34.484Z,3.40
2018-08-18T14:52:03.022Z,3.83
2018-08-18T14:54:32.362Z,2.73
2018-08-18T14:57:02.278Z,3.50
2018-08-18T14:59:34.077Z,4.17
2018-08-18T15:02:04.225Z,2.30
2018-08-18T15:04:33.188Z,3.40
2018-08-18T15:07:01.637Z,3.23
2018-08-18T15:09:38.443Z,3.77
2018-08-18T15:12:07.627Z,2.37
2018-08-18T15:14:36.069Z,3.23
2018-08-18T15:17:04.555Z,3.23
2018-08-18T15:19:33.064Z,2.57
2018-08-18T15:22:05.124Z,2.57
2018-08-18T15:24:33.603Z,3.17
2018-08-18T15:27:02.061Z,3.67
2018-08-18T15:29:30.845Z,2.90
2018-08-18T15:31:59.354Z,2.37
2018-08-18T15:34:28.229Z,2.43
2018-08-18T15:36:56.917Z,2.27
2018-08-18T15:39:27.186Z,4.17
2018-08-18T15:41:57.656Z,2.80
2018-08-18T15:44:27.088Z,2.87
2018-08-18T15:46:55.549Z,2.90
2018-08-18T15:49:23.987Z,2.50
2018-08-18T15:51:52.647Z,3.40
2018-08-18T15:54:23.999Z,2.70
2018-08-18T15:56:52.715Z,2.60
2018-08-18T15:59:21.176Z,4.60
2018-08-18T16:01:49.653Z,2.00
2018-08-18T16:04:18.121Z,2.20
2018-08-18T16:06:47.063Z,1.90
2018-08-18T16:09:15.520Z,4.43
2018-08-18T16:11:43.997Z,2.03
2018-08-18T16:14:12.632Z,1.73
2018-08-18T16:16:55.540Z,1.33
2018-08-18T16:19:24.411Z,1.53
2018-08-18T16:21:52.968Z,2.00
2018-08-18T16:24:32.012Z,2.10
2018-08-18T16:27:02.239Z,1.43
2018-08-18T16:29:30.645Z,2.23
2018-08-18T16:32:20.011Z,1.90
2018-08-18T16:34:56.240Z,2.00
2018-08-18T16:37:26.272Z,1.63
2018-08-18T16:39:55.063Z,1.80
2018-08-18T16:42:23.508Z,1.80
2018-08-18T16:44:52.048Z,1.73
2018-08-18T16:47:20.542Z,2.07
2018-08-18T16:49:49.113Z,1.80
2018-08-18T16:52:17.536Z,2.37
2018-08-18T16:54:45.966Z,1.87
2018-08-18T16:57:14.388Z,2.50
2018-08-18T16:59:42.836Z,2.30
2018-08-18T17:02:25.432Z,2.90
2018-08-18T17:04:53.959Z,1.83
2018-08-18T17:07:26.780Z,1.80
2018-08-18T17:09:55.745Z,2.33
2018-08-18T17:12:28.998Z,2.20
2018-08-18T17:14:57.483Z,2.20
2018-08-18T17:17:26.550Z,4.73
2018-08-18T17:19:55.116Z,3.17
2018-08-18T17:22:23.533Z,3.13
2018-08-18T17:24:52.047Z,2.63
2018-08-18T17:27:20.514Z,2.93
2018-08-18T17:29:50.593Z,1.70
2018-08-18T17:32:19.084Z,1.93
2018-08-18T17:34:47.541Z,2.00
2018-08-18T17:37:16.265Z,1.83
2018-08-18T17:39:44.761Z,2.00
2018-08-18T17:42:13.308Z,2.57
2018-08-18T17:44:41.820Z,2.17
2018-08-18T17:47:11.265Z,2.27
2018-08-18T17:49:51.400Z,2.60
2018-08-18T17:52:19.962Z,2.53
2018-08-18T17:55:04.840Z,2.60
2018-08-18T17:57:33.729Z,2.10
2018-08-18T18:00:07.756Z,2.00
2018-08-18T18:02:43.201Z,2.40
2018-08-18T18:05:11.773Z,2.33
2018-08-18T18:07:40.496Z,2.00
2018-08-18T18:10:09.073Z,1.90
2018-08-18T18:12:37.666Z,3.10
2018-08-18T18:15:43.276Z,2.80
2018-08-18T18:18:13.596Z,3.00
2018-08-18T18:20:44.179Z,2.17
2018-08-18T18:23:13.634Z,2.70
2018-08-18T18:25:42.219Z,3.37
2018-08-18T18:28:10.863Z,3.20
2018-08-18T18:30:39.360Z,3.27
2018-08-18T18:33:08.765Z,2.10
2018-08-18T18:35:37.283Z,2.77
2018-08-18T18:38:06.119Z,2.93
2018-08-18T18:40:41.857Z,2.70
2018-08-18T18:43:10.354Z,2.33
2018-08-18T18:45:39.636Z,3.33
2018-08-18T18:48:10.767Z,3.00
2018-08-18T18:50:39.209Z,2.70
2018-08-18T18:53:10.820Z,3.07
2018-08-18T18:55:45.073Z,3.07
2018-08-18T18:58:14.547Z,3.27
2018-08-18T19:00:53.860Z,3.47
2018-08-18T19:03:22.414Z,3.03
2018-08-18T19:05:50.942Z,2.60
2018-08-18T19:08:20.796Z,2.90
2018-08-18T19:10:49.322Z,3.73
2018-08-18T19:13:17.813Z,2.87
2018-08-18T19:15:46.644Z,3.67
2018-08-18T19:18:15.392Z,2.83
2018-08-18T19:20:44.024Z,3.50
2018-08-18T19:23:19.434Z,3.27
2018-08-18T19:25:49.314Z,3.97
2018-08-18T19:28:19.976Z,3.70
2018-08-18T19:30:48.434Z,4.17
2018-08-18T19:33:17.546Z,3.47
2018-08-18T19:35:48.176Z,3.23
2018-08-18T19:38:17.568Z,3.23
2018-08-18T19:40:47.375Z,3.83
2018-08-18T19:43:22.221Z,3.90
2018-08-18T19:45:51.339Z,3.30
2018-08-18T19:48:21.787Z,3.50
2018-08-18T19:50:56.415Z,3.33
2018-08-18T19:53:28.008Z,3.17
2018-08-18T19:55:58.853Z,3.87
2018-08-18T19:58:27.951Z,4.03
2018-08-18T20:00:56.465Z,4.17
2018-08-18T20:03:25.438Z,5.10
2018-08-18T20:05:54.052Z,4.40
2018-08-18T20:08:26.905Z,6.33
2018-08-18T20:11:00.774Z,4.93
2018-08-18T20:13:31.526Z,4.53
2018-08-18T20:16:01.410Z,4.77
2018-08-18T20:18:30.441Z,5.73
2018-08-18T20:20:59.665Z,5.33
2018-08-18T20:23:28.133Z,5.10
2018-08-18T20:25:56.619Z,5.13
2018-08-18T20:28:25.128Z,4.57
2018-08-18T20:30:53.658Z,4.60
2018-08-18T20:33:22.114Z,5.07
2018-08-18T20:35:50.595Z,5.60
2018-08-18T20:38:19.069Z,4.80
2018-08-18T20:40:47.584Z,5.33
2018-08-18T20:43:16.090Z,5.87
2018-08-18T20:45:47.669Z,5.13
2018-08-18T20:48:19.599Z,6.97
2018-08-18T20:50:48.009Z,4.70
2018-08-18T20:53:17.344Z,4.50
2018-08-18T20:55:52.025Z,5.43
2018-08-18T20:58:20.541Z,4.83
2018-08-18T21:00:48.993Z,4.97
2018-08-18T21:03:17.458Z,4.67
2018-08-18T21:05:45.955Z,4.67
2018-08-18T21:08:18.232Z,4.63
2018-08-18T21:10:47.213Z,4.70
2018-08-18T21:13:15.740Z,4.90
2018-08-18T21:15:44.174Z,5.30
2018-08-18T21:18:20.242Z,5.03
2018-08-18T21:20:49.979Z,5.53
2018-08-18T21:23:19.291Z,5.27
2018-08-18T21:25:49.792Z,4.80
2018-08-18T21:28:19.296Z,5.83
2018-08-18T21:30:48.377Z,4.87
2018-08-18T21:33:17.072Z,5.27
2018-08-18T21:35:45.559Z,5.03
2018-08-18T21:38:14.089Z,5.13
2018-08-18T21:40:43.139Z,4.67
2018-08-18T21:43:23.053Z,5.20
2018-08-18T21:45:53.404Z,4.70
2018-08-18T21:48:28.959Z,5.37
2018-08-18T21:50:57.336Z,5.33
2018-08-18T21:53:26.097Z,5.47
2018-08-18T21:55:54.633Z,4.60
2018-08-18T21:58:23.113Z,5.10
2018-08-18T22:00:51.677Z,5.60
2018-08-18T22:03:20.218Z,5.77
2018-08-18T22:05:48.714Z,5.90
2018-08-18T22:08:17.173Z,5.17
2018-08-18T22:10:49.887Z,5.83
2018-08-18T22:13:18.361Z,6.00
2018-08-18T22:15:46.897Z,6.03
2018-08-18T22:18:15.380Z,5.93
2018-08-18T22:20:43.882Z,5.23
2018-08-18T22:23:12.564Z,5.70
2018-08-18T22:25:41.037Z,5.87
2018-08-18T22:28:09.556Z,5.30
2018-08-18T22:30:38.042Z,6.03
2018-08-18T22:33:06.570Z,5.80
2018-08-18T22:35:35.189Z,6.07
2018-08-18T22:38:03.723Z,6.07
2018-08-18T22:40:32.288Z,5.93
2018-08-18T22:43:00.721Z,6.17
2018-08-18T22:45:30.576Z,5.33
2018-08-18T22:47:59.025Z,5.77
2018-08-18T22:50:27.539Z,6.23
2018-08-18T22:52:55.995Z,5.40
2018-08-18T22:55:24.788Z,5.50
2018-08-18T22:57:58.680Z,6.00
2018-08-18T23:00:27.159Z,6.40
2018-08-18T23:02:55.741Z,5.30
2018-08-18T23:05:24.201Z,5.70
2018-08-18T23:07:54.620Z,6.50
2018-08-18T23:10:24.791Z,5.90
2018-08-18T23:12:53.277Z,6.80
2018-08-18T23:15:22.114Z,6.20
2018-08-18T23:17:50.714Z,5.77
2018-08-18T23:20:19.161Z,6.40
2018-08-18T23:22:54.533Z,6.40
2018-08-18T23:25:24.437Z,5.53
2018-08-18T23:27:53.618Z,5.70
2018-08-18T23:30:39.490Z,6.40
2018-08-18T23:33:09.513Z,6.47
2018-08-18T23:35:37.963Z,6.20
2018-08-18T23:38:06.466Z,6.03
2018-08-18T23:40:34.989Z,6.90
2018-08-18T23:43:03.463Z,6.97
2018-08-18T23:45:38.265Z,6.53
2018-08-18T23:48:12.387Z,6.27
2018-08-18T23:50:42.324Z,7.00
2018-08-18T23:53:12.643Z,6.67
2018-08-18T23:55:48.592Z,6.50
2018-08-18T23:58:17.198Z,7.27
